createdAt,value
2023-02-13T00:00:57.918Z,3.40
2023-02-13T00:03:24.879Z,3.40
2023-02-13T00:05:51.604Z,3.40
2023-02-13T00:08:18.314Z,3.30
2023-02-13T00:10:44.966Z,3.30
2023-02-13T00:13:11.651Z,3.40
2023-02-13T00:15:40.670Z,3.20
2023-02-13T00:18:07.350Z,3.30
2023-02-13T00:20:34.057Z,4.00
2023-02-13T00:23:00.806Z,3.40
2023-02-13T00:25:27.614Z,3.40
2023-02-13T00:27:56.683Z,3.40
2023-02-13T00:30:28.122Z,3.40
2023-02-13T00:32:57.246Z,3.40
2023-02-13T00:35:23.866Z,3.40
2023-02-13T00:37:50.553Z,3.30
2023-02-13T00:40:17.339Z,3.40
2023-02-13T00:42:43.984Z,3.40
2023-02-13T00:45:13.028Z,3.40
2023-02-13T00:47:39.726Z,3.40
2023-02-13T00:50:06.910Z,3.40
2023-02-13T00:52:36.060Z,3.40
2023-02-13T00:55:02.734Z,3.40
2023-02-13T00:57:31.126Z,3.60
2023-02-13T01:00:00.431Z,3.30
2023-02-13T01:02:29.519Z,3.30
2023-02-13T01:04:56.147Z,3.40
2023-02-13T01:07:22.885Z,3.30
2023-02-13T01:09:49.537Z,3.30
2023-02-13T01:12:16.202Z,3.30
2023-02-13T01:14:42.893Z,3.30
2023-02-13T01:17:09.549Z,3.30
2023-02-13T01:19:40.220Z,3.30
2023-02-13T01:22:08.470Z,3.20
2023-02-13T01:24:35.173Z,3.30
2023-02-13T01:27:02.485Z,3.20
2023-02-13T01:29:29.607Z,3.20
2023-02-13T01:31:59.037Z,3.20
2023-02-13T01:34:28.114Z,3.10
2023-02-13T01:36:54.749Z,3.10
2023-02-13T01:39:23.773Z,3.20
2023-02-13T01:41:52.745Z,3.10
2023-02-13T01:44:54.483Z,3.10
2023-02-13T01:47:45.234Z,3.20
2023-02-13T01:50:28.778Z,3.10
2023-02-13T01:53:22.513Z,3.20
2023-02-13T01:58:25.870Z,3.20
2023-02-13T02:00:52.621Z,3.10
2023-02-13T02:03:31.733Z,3.10
2023-02-13T02:06:00.702Z,3.20
2023-02-13T02:08:28.467Z,3.10
2023-02-13T02:10:58.254Z,3.10
2023-02-13T02:13:26.709Z,3.00
2023-02-13T02:15:53.823Z,3.00
2023-02-13T02:18:23.276Z,3.00
2023-02-13T02:21:10.892Z,2.90
2023-02-13T02:24:23.367Z,3.00
2023-02-13T02:27:07.772Z,3.00
2023-02-13T02:29:51.966Z,3.00
2023-02-13T02:32:43.663Z,3.00
2023-02-13T02:35:36.895Z,3.00
2023-02-13T02:38:28.548Z,3.00
2023-02-13T02:41:38.498Z,3.10
2023-02-13T02:44:32.099Z,3.00
2023-02-13T02:47:23.458Z,3.00
2023-02-13T02:50:05.685Z,3.00
2023-02-13T02:52:51.239Z,2.90
2023-02-13T02:55:35.321Z,2.90
2023-02-13T02:58:23.448Z,3.00
2023-02-13T03:01:11.620Z,2.90
2023-02-13T03:03:57.331Z,2.90
2023-02-13T03:06:36.039Z,2.80
2023-02-13T03:09:25.318Z,2.90
2023-02-13T03:12:16.562Z,2.90
2023-02-13T03:14:45.591Z,2.80
2023-02-13T03:17:34.649Z,2.80
2023-02-13T03:20:20.023Z,2.80
2023-02-13T03:23:16.681Z,2.80
2023-02-13T03:26:03.346Z,2.80
2023-02-13T03:29:03.700Z,2.80
2023-02-13T03:31:42.382Z,2.80
2023-02-13T03:34:14.647Z,2.80
2023-02-13T03:37:21.882Z,3.30
2023-02-13T03:40:08.175Z,2.70
2023-02-13T03:42:39.988Z,2.70
2023-02-13T03:45:29.004Z,2.70
2023-02-13T03:48:21.113Z,2.60
2023-02-13T03:50:48.024Z,2.70
2023-02-13T03:53:16.011Z,2.60
2023-02-13T04:01:26.820Z,2.60
2023-02-13T04:04:28.806Z,2.90
2023-02-13T04:09:29.316Z,2.60
2023-02-13T04:17:32.571Z,2.50
2023-02-13T04:20:04.395Z,2.50
2023-02-13T04:22:31.797Z,2.50
2023-02-13T04:25:00.859Z,2.80
2023-02-13T04:27:29.086Z,2.40
2023-02-13T04:29:55.815Z,2.40
2023-02-13T04:32:27.328Z,2.40
2023-02-13T04:34:53.969Z,2.70
2023-02-13T04:37:23.103Z,2.40
2023-02-13T04:39:49.770Z,2.40
2023-02-13T04:42:16.462Z,2.40
2023-02-13T04:44:43.099Z,2.40
2023-02-13T04:47:14.438Z,2.40
2023-02-13T04:49:43.236Z,2.40
2023-02-13T04:52:09.979Z,2.40
2023-02-13T04:54:36.608Z,2.30
2023-02-13T04:57:03.364Z,2.40
2023-02-13T04:59:30.025Z,2.30
2023-02-13T05:01:59.247Z,2.40
2023-02-13T05:04:28.994Z,2.20
2023-02-13T05:06:55.772Z,2.30
2023-02-13T05:09:22.525Z,2.20
2023-02-13T05:11:52.881Z,2.20
2023-02-13T05:14:19.693Z,2.20
2023-02-13T05:16:47.019Z,2.20
2023-02-13T05:19:13.697Z,2.20
2023-02-13T05:22:01.599Z,2.20
2023-02-13T05:24:30.814Z,2.20
2023-02-13T05:26:59.713Z,2.10
2023-02-13T05:29:26.687Z,2.10
2023-02-13T05:31:58.284Z,2.00
2023-02-13T05:34:27.123Z,2.10
2023-02-13T05:36:54.704Z,2.00
2023-02-13T05:39:22.024Z,2.10
2023-02-13T05:41:51.542Z,1.90
2023-02-13T05:44:18.417Z,1.80
2023-02-13T05:46:45.762Z,1.90
2023-02-13T05:49:14.133Z,1.60
2023-02-13T05:51:42.014Z,1.90
2023-02-13T05:54:09.303Z,1.80
2023-02-13T05:56:38.187Z,1.70
2023-02-13T05:59:05.025Z,1.70
2023-02-13T06:01:31.710Z,1.70
2023-02-13T06:03:59.623Z,1.70
2023-02-13T06:06:29.419Z,1.90
2023-02-13T06:08:56.089Z,1.60
2023-02-13T06:11:22.863Z,1.80
2023-02-13T06:13:50.622Z,1.60
2023-02-13T06:16:17.474Z,1.40
2023-02-13T06:18:44.243Z,1.50
2023-02-13T06:21:10.961Z,1.40
2023-02-13T06:23:37.741Z,1.50
2023-02-13T06:26:08.822Z,1.30
2023-02-13T06:28:36.756Z,1.30
2023-02-13T06:31:04.266Z,1.30
2023-02-13T06:33:33.215Z,1.30
2023-02-13T06:36:02.173Z,1.20
2023-02-13T06:38:32.069Z,1.20
2023-02-13T06:43:29.262Z,1.20
2023-02-13T06:45:55.944Z,1.20
2023-02-13T06:48:23.125Z,1.20
2023-02-13T06:50:52.112Z,1.10
2023-02-13T06:53:24.531Z,1.20
2023-02-13T06:55:57.305Z,1.20
2023-02-13T06:58:24.981Z,1.20
2023-02-13T07:00:54.397Z,1.10
2023-02-13T07:03:23.474Z,1.90
2023-02-13T07:05:52.360Z,1.10
2023-02-13T07:08:19.491Z,1.20
2023-02-13T07:10:48.575Z,1.20
2023-02-13T07:13:15.529Z,1.20
2023-02-13T07:15:42.329Z,1.10
2023-02-13T07:18:09.272Z,1.10
2023-02-13T07:20:36.118Z,1.40
2023-02-13T07:23:04.632Z,1.50
2023-02-13T07:25:31.720Z,1.20
2023-02-13T07:28:07.609Z,1.20
2023-02-13T07:30:34.946Z,1.20
2023-02-13T07:33:03.179Z,1.30
2023-02-13T07:35:29.912Z,1.20
2023-02-13T07:37:56.793Z,1.10
2023-02-13T07:40:25.755Z,1.40
2023-02-13T07:42:52.459Z,1.40
2023-02-13T07:45:21.434Z,1.40
2023-02-13T07:47:48.136Z,1.50
2023-02-13T07:50:14.929Z,1.50
2023-02-13T07:52:44.108Z,1.60
2023-02-13T07:55:13.077Z,1.70
2023-02-13T07:57:39.766Z,2.00
2023-02-13T08:00:09.631Z,1.90
2023-02-13T08:02:36.298Z,2.00
2023-02-13T08:05:03.059Z,2.10
2023-02-13T08:07:32.398Z,2.20
2023-02-13T08:10:20.249Z,2.60
2023-02-13T08:12:47.164Z,2.50
2023-02-13T08:15:18.050Z,2.80
2023-02-13T08:17:44.800Z,2.70
2023-02-13T08:20:12.057Z,3.10
2023-02-13T08:22:41.294Z,3.30
2023-02-13T08:25:10.488Z,3.40
2023-02-13T08:27:40.428Z,3.50
2023-02-13T08:30:08.073Z,3.80
2023-02-13T08:32:44.819Z,4.00
2023-02-13T08:35:29.545Z,4.20
2023-02-13T08:37:56.456Z,4.40
2023-02-13T08:40:26.103Z,4.50
2023-02-13T08:42:57.538Z,4.80
2023-02-13T08:45:27.127Z,5.00
2023-02-13T08:47:59.367Z,5.10
2023-02-13T08:50:27.585Z,5.20
2023-02-13T08:52:59.810Z,5.40
2023-02-13T08:55:28.616Z,5.60
2023-02-13T08:57:55.333Z,6.30
2023-02-13T09:00:22.321Z,5.90
2023-02-13T09:02:51.649Z,6.00
2023-02-13T09:05:21.106Z,6.70
2023-02-13T09:07:47.765Z,6.50
2023-02-13T09:10:19.492Z,6.50
2023-02-13T09:12:54.868Z,6.70
2023-02-13T09:15:23.942Z,6.70
2023-02-13T09:17:52.822Z,7.00
2023-02-13T09:20:21.835Z,7.50
2023-02-13T09:22:50.705Z,7.00
2023-02-13T09:25:17.539Z,7.80
2023-02-13T09:30:22.957Z,7.30
2023-02-13T09:32:53.099Z,7.50
2023-02-13T09:35:20.952Z,8.10
2023-02-13T09:40:39.840Z,7.90
2023-02-13T09:43:47.677Z,7.90
2023-02-13T09:46:17.472Z,8.10
2023-02-13T09:48:48.450Z,8.10
2023-02-13T09:51:19.439Z,8.30
2023-02-13T09:53:53.207Z,8.50
2023-02-13T09:56:50.055Z,8.60
2023-02-13T09:59:48.405Z,8.40
2023-02-13T10:02:43.242Z,8.60
2023-02-13T10:05:22.063Z,8.70
2023-02-13T10:08:00.507Z,8.70
2023-02-13T10:10:43.677Z,8.80
2023-02-13T10:13:35.047Z,8.70
2023-02-13T10:16:28.412Z,9.70
2023-02-13T10:19:13.505Z,8.90
2023-02-13T10:21:54.033Z,9.00
2023-02-13T10:24:36.417Z,9.00
2023-02-13T10:27:16.028Z,9.00
2023-02-13T10:30:09.533Z,9.10
2023-02-13T10:32:39.843Z,9.60
2023-02-13T10:35:23.327Z,9.30
2023-02-13T10:43:09.582Z,9.40
2023-02-13T10:45:59.538Z,9.40
2023-02-13T10:49:10.493Z,9.20
2023-02-13T11:02:34.595Z,9.70
2023-02-13T11:12:34.815Z,10.00
2023-02-13T11:15:05.745Z,10.10
2023-02-13T11:20:07.526Z,10.10
2023-02-13T11:22:37.739Z,10.20
2023-02-13T11:25:17.013Z,10.50
2023-02-13T11:27:44.307Z,10.40
2023-02-13T11:30:37.738Z,10.50
2023-02-13T11:33:22.067Z,10.50
2023-02-13T11:36:08.699Z,10.50
2023-02-13T11:38:35.704Z,10.60
2023-02-13T11:44:00.995Z,10.70
2023-02-13T11:46:48.901Z,10.80
2023-02-13T11:49:23.352Z,10.70
2023-02-13T11:51:55.221Z,11.00
2023-02-13T11:54:30.406Z,10.80
2023-02-13T11:57:33.523Z,10.70
2023-02-13T12:00:20.516Z,10.80
2023-02-13T12:02:50.340Z,10.90
2023-02-13T12:05:23.496Z,11.30
2023-02-13T12:07:55.460Z,11.10
2023-02-13T12:12:58.276Z,11.20
2023-02-13T12:15:28.067Z,11.20
2023-02-13T12:18:08.534Z,11.30
2023-02-13T12:20:59.801Z,11.30
2023-02-13T12:26:26.727Z,11.40
2023-02-13T12:29:02.533Z,11.40
2023-02-13T12:31:36.231Z,11.60
2023-02-13T12:34:29.705Z,11.50
2023-02-13T12:37:22.786Z,11.90
2023-02-13T12:42:43.428Z,11.50
2023-02-13T12:53:41.599Z,11.60
2023-02-13T12:58:48.264Z,11.60
2023-02-13T13:04:01.477Z,11.60
2023-02-13T13:09:24.191Z,11.40
2023-02-13T13:12:12.070Z,11.50
2023-02-13T13:14:53.699Z,11.50
2023-02-13T13:17:44.931Z,11.50
2023-02-13T13:20:14.591Z,11.50
2023-02-13T13:25:20.622Z,11.30
2023-02-13T13:27:51.915Z,11.40
2023-02-13T13:30:35.356Z,12.00
2023-02-13T13:38:34.035Z,11.10
2023-02-13T13:41:14.192Z,11.10
2023-02-13T13:43:52.586Z,11.00
2023-02-13T13:46:38.548Z,10.90
2023-02-13T14:01:46.306Z,10.50
2023-02-13T14:14:31.674Z,10.10
2023-02-13T14:32:27.393Z,9.70
2023-02-13T14:40:20.622Z,9.50
2023-02-13T14:43:09.564Z,9.50
2023-02-13T14:45:47.816Z,10.10
2023-02-13T14:48:15.650Z,9.50
2023-02-13T14:50:54.122Z,9.50
2023-02-13T14:53:30.725Z,9.30
2023-02-13T14:56:12.954Z,9.20
2023-02-13T14:58:56.970Z,9.30
2023-02-13T15:01:56.891Z,9.10
2023-02-13T15:04:42.536Z,9.10
2023-02-13T15:07:17.876Z,9.00
2023-02-13T15:09:58.735Z,9.10
2023-02-13T15:12:28.556Z,9.10
2023-02-13T15:14:58.242Z,9.00
2023-02-13T15:17:38.693Z,9.50
2023-02-13T15:20:20.228Z,8.90
2023-02-13T15:22:47.275Z,8.90
2023-02-13T15:25:38.962Z,8.90
2023-02-13T15:28:08.415Z,9.10
2023-02-13T15:30:40.296Z,9.20
2023-02-13T15:33:24.360Z,9.40
2023-02-13T15:36:03.649Z,9.00
2023-02-13T15:38:30.257Z,8.90
2023-02-13T15:41:07.784Z,8.90
2023-02-13T15:43:39.826Z,8.80
2023-02-13T15:46:30.415Z,8.70
2023-02-13T15:49:16.648Z,8.60
2023-02-13T15:54:31.921Z,8.40
2023-02-13T15:57:11.199Z,8.80
2023-02-13T15:59:39.524Z,8.50
2023-02-13T16:02:17.177Z,8.30
2023-02-13T16:07:17.165Z,8.20
2023-02-13T16:09:46.256Z,8.40
2023-02-13T16:12:33.213Z,8.20
2023-02-13T16:15:05.681Z,8.40
2023-02-13T16:17:40.184Z,8.50
2023-02-13T16:20:11.512Z,8.00
2023-02-13T16:22:45.328Z,7.90
2023-02-13T16:25:26.861Z,7.90
2023-02-13T16:27:57.646Z,7.90
2023-02-13T16:30:40.221Z,7.70
2023-02-13T16:33:22.239Z,7.70
2023-02-13T16:36:16.179Z,8.00
2023-02-13T16:38:47.119Z,7.40
2023-02-13T16:41:22.109Z,7.40
2023-02-13T16:43:58.668Z,7.30
2023-02-13T16:46:25.403Z,7.60
2023-02-13T16:49:03.499Z,7.00
2023-02-13T16:51:30.227Z,7.20
2023-02-13T16:54:21.861Z,7.80
2023-02-13T16:56:53.908Z,6.90
2023-02-13T16:59:33.263Z,6.80
2023-02-13T17:02:24.549Z,6.70
2023-02-13T17:04:55.162Z,6.70
2023-02-13T17:07:28.392Z,6.30
2023-02-13T17:10:03.069Z,6.40
2023-02-13T17:12:35.892Z,6.40
2023-02-13T17:15:02.767Z,6.20
2023-02-13T17:17:31.626Z,6.30
2023-02-13T17:20:02.815Z,6.40
2023-02-13T17:22:41.708Z,6.10
2023-02-13T17:25:20.675Z,6.10
2023-02-13T17:27:48.556Z,6.30
2023-02-13T17:30:23.369Z,5.70
2023-02-13T17:32:53.858Z,5.80
2023-02-13T17:35:23.037Z,5.70
2023-02-13T17:37:49.820Z,5.90
2023-02-13T17:40:21.565Z,5.60
2023-02-13T17:42:54.521Z,5.60
2023-02-13T17:45:27.018Z,5.60
2023-02-13T17:47:57.806Z,5.30
2023-02-13T17:50:28.282Z,5.40
2023-02-13T17:52:57.782Z,5.40
2023-02-13T17:55:27.325Z,5.40
2023-02-13T17:57:58.369Z,5.30
2023-02-13T18:00:29.071Z,5.80
2023-02-13T18:02:56.705Z,5.50
2023-02-13T18:05:23.675Z,5.20
2023-02-13T18:07:50.490Z,5.10
2023-02-13T18:10:27.404Z,5.10
2023-02-13T18:13:03.894Z,5.00
2023-02-13T18:15:37.654Z,4.90
2023-02-13T18:18:04.744Z,4.90
2023-02-13T18:20:33.657Z,5.20
2023-02-13T18:23:00.411Z,4.90
2023-02-13T18:25:29.411Z,4.80
2023-02-13T18:27:56.357Z,5.00
2023-02-13T18:30:23.289Z,4.70
2023-02-13T18:32:58.811Z,4.70
2023-02-13T18:35:27.921Z,4.70
2023-02-13T18:37:54.605Z,4.60
2023-02-13T18:40:23.740Z,4.70
2023-02-13T18:42:52.084Z,4.50
2023-02-13T18:45:19.081Z,4.50
2023-02-13T18:47:48.015Z,4.50
2023-02-13T18:50:16.048Z,4.40
2023-02-13T18:52:42.851Z,4.40
2023-02-13T18:55:12.070Z,4.30
2023-02-13T18:57:45.409Z,4.20
2023-02-13T19:00:14.268Z,4.30
2023-02-13T19:44:39.711Z,3.70
2023-02-13T19:47:08.618Z,3.70
2023-02-13T19:52:03.518Z,3.60
2023-02-13T19:54:30.217Z,3.60
2023-02-13T20:51:34.227Z,3.00
2023-02-13T20:54:03.607Z,3.00
2023-02-13T20:56:30.650Z,3.00
2023-02-13T20:59:00.640Z,2.90
2023-02-13T21:01:35.502Z,2.90
2023-02-13T21:04:04.485Z,2.50
2023-02-13T21:06:34.467Z,2.90
2023-02-13T21:09:02.634Z,3.70
2023-02-13T21:11:29.751Z,2.80
2023-02-13T21:13:57.548Z,2.80
2023-02-13T21:16:27.729Z,2.70
2023-02-13T21:18:57.721Z,2.70
2023-02-13T21:21:31.255Z,2.70
2023-02-13T21:24:04.365Z,2.70
2023-02-13T21:26:34.923Z,2.70
2023-02-13T21:29:04.375Z,2.60
2023-02-13T21:31:39.331Z,2.70
2023-02-13T21:34:11.735Z,2.70
2023-02-13T21:36:39.123Z,2.60
2023-02-13T21:39:07.913Z,2.60
2023-02-13T21:41:34.642Z,2.50
2023-02-13T21:44:01.384Z,2.60
2023-02-13T21:46:30.910Z,2.40
2023-02-13T21:49:03.678Z,2.60
2023-02-13T21:51:32.551Z,2.50
2023-02-13T21:54:02.837Z,2.50
2023-02-13T21:56:34.214Z,2.40
2023-02-13T21:59:01.806Z,2.50
2023-02-13T22:01:31.013Z,2.40
2023-02-13T22:04:03.131Z,2.40
2023-02-13T22:06:31.402Z,2.40
2023-02-13T22:09:12.172Z,2.40
2023-02-13T22:11:39.152Z,2.40
2023-02-13T22:14:15.828Z,2.30
2023-02-13T22:16:46.228Z,2.50
2023-02-13T22:21:44.009Z,2.30
2023-02-13T22:24:11.881Z,3.10
2023-02-13T22:26:41.087Z,2.20
2023-02-13T22:29:14.215Z,2.20
2023-02-13T22:31:41.419Z,2.20
2023-02-13T22:34:13.326Z,2.10
2023-02-13T22:36:40.882Z,2.10
2023-02-13T22:39:09.720Z,2.20
2023-02-13T22:41:37.000Z,2.20
2023-02-13T22:44:03.835Z,2.20
2023-02-13T22:51:32.988Z,2.30
2023-02-13T22:54:02.794Z,2.30
2023-02-13T22:56:30.833Z,2.30
2023-02-13T22:58:57.875Z,2.30
2023-02-13T23:01:26.356Z,2.30
2023-02-13T23:03:53.419Z,2.30
2023-02-13T23:06:23.419Z,2.30
2023-02-13T23:08:52.695Z,2.30
2023-02-13T23:11:39.410Z,2.40
2023-02-13T23:14:09.970Z,2.30
2023-02-13T23:16:56.769Z,2.20
2023-02-13T23:19:25.401Z,2.90
2023-02-13T23:21:52.107Z,2.30
2023-02-13T23:24:21.350Z,2.30
2023-02-13T23:26:48.163Z,2.30
2023-02-13T23:29:17.241Z,2.40
2023-02-13T23:31:44.074Z,2.30
2023-02-13T23:34:13.368Z,2.30
2023-02-13T23:36:40.029Z,2.40
2023-02-13T23:39:08.962Z,2.30
2023-02-13T23:41:38.024Z,2.30
2023-02-13T23:44:06.954Z,2.10
2023-02-13T23:46:35.959Z,2.30
2023-02-13T23:49:02.707Z,2.30
2023-02-13T23:51:29.402Z,2.50
